Time;durP1;ratioP1;P1;durP2;ratioP2;P2;SDS_P1;SDS_P2;PMS_P1;PMS_P2;Temp;Humidity;BMP_temperature;BMP_pressure;BME280_temperature;BME280_humidity;BME280_pressure;Samples;Min_cycle;Max_cycle;Signal;HPM_P1;HPM_P2
2024/01/27 00:00:48;;;;;;;40.60;24.58;;;;;;;16.11;51.81;103537.34;5008831;28;20057;-44
2024/01/27 00:03:15;;;;;;;41.35;25.45;;;;;;;16.10;51.27;103540.97;5020015;28;20046;-44
2024/01/27 00:05:41;;;;;;;42.03;26.17;;;;;;;16.08;51.64;103537.47;5006113;28;20128;-45
2024/01/27 00:08:08;;;;;;;38.13;24.05;;;;;;;16.06;51.72;103539.38;5008265;28;20046;-44
2024/01/27 00:10:35;;;;;;;39.35;24.10;;;;;;;16.04;51.32;103542.16;5008816;28;20061;-44
2024/01/27 00:13:01;;;;;;;40.90;24.17;;;;;;;16.02;50.93;103533.31;5006748;28;20074;-44
2024/01/27 00:15:28;;;;;;;37.15;23.67;;;;;;;15.98;51.50;103531.72;5001808;28;20057;-45
2024/01/27 00:17:55;;;;;;;37.63;22.90;;;;;;;15.97;51.38;103532.69;5005027;28;20046;-44
2024/01/27 00:20:21;;;;;;;39.65;23.77;;;;;;;15.95;51.23;103531.88;5002594;28;20046;-45
2024/01/27 00:22:48;;;;;;;39.75;24.38;;;;;;;15.93;52.05;103541.78;5006844;28;20068;-44
2024/01/27 00:25:15;;;;;;;37.20;23.05;;;;;;;15.91;51.93;103546.31;5004456;28;20062;-45
2024/01/27 00:27:41;;;;;;;38.42;22.40;;;;;;;15.89;51.04;103543.75;5004703;28;20049;-44
2024/01/27 00:30:08;;;;;;;38.28;22.98;;;;;;;15.88;52.02;103542.00;5004544;28;20080;-44
2024/01/27 00:32:35;;;;;;;37.78;21.65;;;;;;;15.88;52.06;103546.47;5006942;28;20077;-44
2024/01/27 00:35:02;;;;;;;34.65;21.25;;;;;;;15.86;51.34;103548.38;5004872;28;20045;-44
2024/01/27 00:37:29;;;;;;;31.75;20.50;;;;;;;15.84;51.91;103552.91;5005078;28;20513;-44
2024/01/27 00:39:56;;;;;;;34.03;21.40;;;;;;;15.82;51.73;103542.28;5006471;28;20046;-44
2024/01/27 00:42:24;;;;;;;32.28;19.40;;;;;;;15.80;51.62;103549.53;5007369;28;20545;-44
2024/01/27 00:44:51;;;;;;;37.03;21.48;;;;;;;15.79;51.37;103545.97;5006365;28;20045;-44
2024/01/27 00:47:18;;;;;;;31.23;19.27;;;;;;;15.77;51.28;103539.84;5007818;28;20133;-44
2024/01/27 00:49:44;;;;;;;31.02;19.38;;;;;;;15.75;51.06;103552.41;5006194;28;20042;-44
2024/01/27 00:52:11;;;;;;;30.35;18.25;;;;;;;15.74;51.95;103544.47;5005169;28;20054;-44
2024/01/27 00:54:38;;;;;;;30.60;18.38;;;;;;;15.73;51.83;103553.44;5004057;28;20137;-44
2024/01/27 00:57:04;;;;;;;32.70;20.10;;;;;;;15.71;51.15;103556.16;5005125;28;20050;-44
2024/01/27 00:59:31;;;;;;;30.85;18.10;;;;;;;15.70;51.54;103556.25;5004697;28;20346;-44
2024/01/27 01:01:58;;;;;;;29.63;18.92;;;;;;;15.69;51.59;103547.34;5004944;28;20053;-44
2024/01/27 01:04:25;;;;;;;31.42;18.20;;;;;;;15.67;51.90;103546.53;5007365;28;20050;-44
2024/01/27 01:06:52;;;;;;;31.85;18.52;;;;;;;15.66;51.20;103550.16;5003655;28;20133;-44
2024/01/27 01:09:18;;;;;;;30.45;18.15;;;;;;;15.65;51.12;103550.25;5004340;28;20056;-44
2024/01/27 01:11:45;;;;;;;28.13;17.33;;;;;;;15.63;51.35;103542.25;5000338;28;20050;-46
2024/01/27 01:14:12;;;;;;;30.48;17.13;;;;;;;15.62;50.98;103550.34;5002997;28;20046;-44
2024/01/27 01:16:40;;;;;;;26.33;16.23;;;;;;;15.62;51.43;103553.03;5004579;28;20050;-44
2024/01/27 01:19:07;;;;;;;24.48;16.48;;;;;;;15.60;51.56;103547.75;5005143;28;20157;-44
2024/01/27 01:21:34;;;;;;;29.92;17.60;;;;;;;15.59;51.09;103553.16;5005911;28;20064;-44
2024/01/27 01:24:01;;;;;;;26.08;16.33;;;;;;;15.58;51.00;103554.97;5004944;28;20116;-44
2024/01/27 01:26:28;;;;;;;24.88;14.65;;;;;;;15.57;52.13;103553.25;5002495;28;20058;-44
2024/01/27 01:28:54;;;;;;;27.92;16.02;;;;;;;15.55;51.15;103552.44;5005447;28;20046;-44
2024/01/27 01:31:21;;;;;;;25.90;15.40;;;;;;;15.54;50.91;103556.06;5004393;28;20133;-44
2024/01/27 01:33:48;;;;;;;24.67;15.13;;;;;;;15.53;51.91;103557.00;5001345;28;20768;-44
2024/01/27 01:36:15;;;;;;;26.23;15.35;;;;;;;15.52;51.86;103555.28;5004556;28;20161;-44
2024/01/27 01:38:42;;;;;;;25.77;15.50;;;;;;;15.50;51.17;103560.66;5002725;28;20073;-44
2024/01/27 01:41:09;;;;;;;27.50;14.80;;;;;;;15.50;51.73;103558.00;5006215;28;20057;-44
2024/01/27 01:43:35;;;;;;;23.73;14.27;;;;;;;15.48;51.92;103559.03;5002291;28;20129;-44
2024/01/27 01:46:03;;;;;;;23.08;15.10;;;;;;;15.48;52.27;103564.38;5006000;28;20046;-44
2024/01/27 01:48:29;;;;;;;26.30;14.60;;;;;;;15.47;51.43;103557.25;5000896;28;20064;-44
2024/01/27 01:50:58;;;;;;;21.67;13.80;;;;;;;15.46;51.15;103553.72;5002491;28;20046;-44
2024/01/27 01:53:25;;;;;;;21.33;13.38;;;;;;;15.45;52.00;103551.16;5005685;28;20054;-44
2024/01/27 01:55:52;;;;;;;26.02;14.68;;;;;;;15.45;51.43;103557.34;5004971;28;20069;-44
2024/01/27 01:58:19;;;;;;;22.42;13.82;;;;;;;15.42;51.68;103559.28;5004768;28;20136;-44
2024/01/27 02:00:46;;;;;;;23.20;14.15;;;;;;;15.42;51.54;103567.31;5005957;28;20081;-44
2024/01/27 02:03:13;;;;;;;22.95;12.20;;;;;;;15.41;52.01;103568.25;5005444;28;20057;-43
2024/01/27 02:05:40;;;;;;;22.52;12.30;;;;;;;15.41;52.04;103573.59;5007491;28;20413;-44
2024/01/27 02:08:08;;;;;;;22.55;12.38;;;;;;;15.39;51.78;103568.31;5006330;28;20045;-44
2024/01/27 02:10:38;;;;;;;20.77;12.27;;;;;;;15.38;51.73;103563.03;5007484;28;20080;-44
2024/01/27 02:13:18;;;;;;;20.73;12.10;;;;;;;15.37;51.00;103564.00;5005741;28;20052;-44
2024/01/27 02:15:45;;;;;;;19.63;12.18;;;;;;;15.37;51.16;103558.66;5004903;28;20046;-44
2024/01/27 02:18:12;;;;;;;23.20;13.20;;;;;;;15.36;51.64;103564.94;5002614;28;20054;-44
2024/01/27 02:20:39;;;;;;;20.33;12.23;;;;;;;15.35;51.10;103560.50;5006435;28;20038;-45
2024/01/27 02:23:06;;;;;;;24.23;13.82;;;;;;;15.34;51.71;103562.31;5004011;28;20120;-44
2024/01/27 02:25:33;;;;;;;20.23;12.00;;;;;;;15.33;51.29;103570.41;5007746;28;20045;-44
2024/01/27 02:28:02;;;;;;;22.55;11.80;;;;;;;15.31;51.61;103567.78;5002958;28;20104;-44
2024/01/27 02:30:29;;;;;;;21.42;11.82;;;;;;;15.31;50.97;103571.31;5004213;28;20057;-44
2024/01/27 02:32:58;;;;;;;20.17;11.20;;;;;;;15.30;51.99;103577.59;5004485;28;20123;-44
2024/01/27 02:35:25;;;;;;;19.63;11.50;;;;;;;15.29;51.70;103578.56;5006941;28;20049;-44
2024/01/27 02:37:51;;;;;;;17.40;10.13;;;;;;;15.27;51.29;103577.75;5005914;28;20054;-44
2024/01/27 02:40:18;;;;;;;19.38;11.57;;;;;;;15.27;51.00;103571.53;4995105;28;20500;-44
2024/01/27 02:42:45;;;;;;;18.85;11.20;;;;;;;15.27;51.46;103576.88;5004133;28;20492;-44
2024/01/27 02:45:11;;;;;;;17.83;9.68;;;;;;;15.25;50.90;103579.63;4999609;28;20609;-44
2024/01/27 02:47:39;;;;;;;17.17;10.00;;;;;;;15.25;51.16;103568.06;5001671;28;20050;-44
2024/01/27 02:50:06;;;;;;;18.42;10.77;;;;;;;15.24;51.71;103572.56;5002996;28;20038;-46
2024/01/27 02:52:33;;;;;;;16.90;10.27;;;;;;;15.23;51.52;103584.16;5004224;28;20085;-46
2024/01/27 02:55:00;;;;;;;17.58;10.75;;;;;;;15.22;51.33;103569.06;5002831;28;20489;-43
2024/01/27 02:57:26;;;;;;;17.73;10.20;;;;;;;15.21;51.90;103567.34;5007329;28;20054;-44
2024/01/27 02:59:54;;;;;;;17.60;10.20;;;;;;;15.20;51.49;103565.63;5005907;28;20148;-44
2024/01/27 03:02:20;;;;;;;20.13;10.32;;;;;;;15.21;52.15;103569.16;5006918;28;20050;-44
2024/01/27 03:04:47;;;;;;;15.93;9.57;;;;;;;15.22;51.07;103565.53;5000743;28;20051;-43
2024/01/27 03:07:13;;;;;;;15.90;9.73;;;;;;;15.22;51.14;103570.88;5003872;28;20061;-43
2024/01/27 03:09:40;;;;;;;14.18;9.10;;;;;;;15.24;52.03;103567.22;5000933;28;20053;-46
2024/01/27 03:12:07;;;;;;;16.63;9.63;;;;;;;15.28;50.84;103568.81;5002927;28;20096;-43
2024/01/27 03:14:34;;;;;;;19.13;10.00;;;;;;;15.36;51.50;103575.63;5006568;28;20049;-43
2024/01/27 03:17:01;;;;;;;15.60;8.93;;;;;;;15.41;50.96;103562.91;5003565;28;20081;-44
2024/01/27 03:19:27;;;;;;;14.07;8.60;;;;;;;15.46;50.67;103555.53;5004711;28;20045;-44
2024/01/27 03:21:54;;;;;;;15.05;8.55;;;;;;;15.54;50.62;103566.75;5005021;28;20527;-43
2024/01/27 03:24:21;;;;;;;13.25;7.95;;;;;;;15.63;51.21;103584.16;5004957;28;20116;-44
2024/01/27 03:26:48;;;;;;;15.95;8.73;;;;;;;15.72;50.19;103575.78;5004522;28;20476;-44
2024/01/27 03:29:14;;;;;;;15.18;9.00;;;;;;;15.76;50.00;103572.00;5003863;28;20073;-44
2024/01/27 03:31:42;;;;;;;12.02;7.63;;;;;;;15.81;50.49;103571.78;5005914;28;20049;-44
2024/01/27 03:34:08;;;;;;;13.20;8.05;;;;;;;15.86;50.04;103578.66;5005741;28;20061;-44
2024/01/27 03:36:35;;;;;;;14.63;8.68;;;;;;;15.92;50.51;103580.16;5002721;28;20064;-44
2024/01/27 03:39:03;;;;;;;15.15;7.88;;;;;;;15.94;49.49;103576.47;5002044;28;20053;-44
2024/01/27 03:41:30;;;;;;;14.15;7.35;;;;;;;16.00;49.89;103583.31;5003780;28;20046;-43
2024/01/27 03:43:56;;;;;;;11.50;7.55;;;;;;;16.02;50.16;103570.75;5002519;28;20127;-44
2024/01/27 03:46:23;;;;;;;14.15;7.88;;;;;;;16.03;50.30;103576.03;5006483;28;20045;-44
2024/01/27 03:48:50;;;;;;;13.15;7.55;;;;;;;16.07;49.49;103582.09;5006596;28;20108;-43
2024/01/27 03:51:16;;;;;;;11.45;6.50;;;;;;;16.08;49.83;103591.00;5003860;28;20137;-45
2024/01/27 03:53:43;;;;;;;11.32;6.80;;;;;;;16.09;49.29;103590.94;5005809;28;20108;-43
2024/01/27 03:56:13;;;;;;;11.82;6.43;;;;;;;16.11;49.29;103586.38;5004567;28;20041;-43
2024/01/27 03:58:40;;;;;;;12.00;6.88;;;;;;;16.11;48.74;103578.34;5003498;28;20060;-43
2024/01/27 04:01:06;;;;;;;11.27;6.80;;;;;;;16.12;49.51;103581.88;5005346;28;20061;-44
2024/01/27 04:03:33;;;;;;;11.20;6.97;;;;;;;16.13;48.78;103579.16;5006852;28;20149;-44
2024/01/27 04:06:02;;;;;;;11.20;6.15;;;;;;;16.12;49.51;103573.84;5008281;28;20049;-44
2024/01/27 04:08:30;;;;;;;13.05;6.70;;;;;;;16.10;49.52;103573.06;5007326;28;20045;-43
2024/01/27 04:10:57;;;;;;;13.77;6.72;;;;;;;16.07;48.48;103584.78;5008784;28;20046;-44
2024/01/27 04:13:24;;;;;;;10.63;6.22;;;;;;;16.02;49.25;103586.81;5007538;28;20046;-44
2024/01/27 04:15:53;;;;;;;11.43;6.25;;;;;;;15.93;49.28;103577.44;5002754;28;20661;-44
2024/01/27 04:18:20;;;;;;;10.98;5.90;;;;;;;15.87;48.85;103591.06;5006218;28;20061;-44
2024/01/27 04:20:48;;;;;;;12.40;6.75;;;;;;;15.79;49.01;103582.53;5005501;28;20510;-44
2024/01/27 04:23:15;;;;;;;9.45;5.78;;;;;;;15.69;49.01;103578.59;5007213;28;20052;-44
2024/01/27 04:25:43;;;;;;;10.90;6.22;;;;;;;15.64;49.12;103581.44;5008524;28;20050;-44
2024/01/27 04:28:11;;;;;;;10.18;6.30;;;;;;;15.68;49.94;103579.53;5005513;28;20053;-44
2024/01/27 04:30:38;;;;;;;11.75;6.20;;;;;;;15.69;49.79;103579.44;5008961;28;20421;-44
2024/01/27 04:33:07;;;;;;;10.07;5.80;;;;;;;15.75;50.04;103581.81;5002336;28;20054;-44
2024/01/27 04:35:34;;;;;;;9.63;5.75;;;;;;;15.82;50.04;103584.22;5005172;28;20054;-44
2024/01/27 04:38:01;;;;;;;10.05;6.05;;;;;;;15.90;49.19;103582.03;5008585;28;20053;-44
2024/01/27 04:40:27;;;;;;;10.85;5.78;;;;;;;15.98;50.05;103585.22;5002669;28;20949;-44
2024/01/27 04:42:54;;;;;;;9.65;5.18;;;;;;;16.04;49.34;103593.84;5005060;28;20136;-43
2024/01/27 04:45:21;;;;;;;12.10;6.38;;;;;;;16.12;48.76;103600.59;5006206;28;20123;-44
2024/01/27 04:47:47;;;;;;;12.63;5.88;;;;;;;16.17;49.44;103601.28;5005119;28;20049;-44
2024/01/27 04:50:14;;;;;;;10.75;5.65;;;;;;;16.20;48.45;103596.63;5005110;28;20042;-44
2024/01/27 04:52:41;;;;;;;10.60;5.60;;;;;;;16.23;48.69;103615.19;5009166;28;20120;-44
2024/01/27 04:55:08;;;;;;;9.85;5.15;;;;;;;16.25;48.15;103610.66;5005869;28;20056;-44
2024/01/27 04:57:34;;;;;;;12.50;5.75;;;;;;;16.24;48.27;103603.56;5009186;28;20053;-44
2024/01/27 05:00:02;;;;;;;9.32;4.82;;;;;;;16.25;48.24;103597.28;5006272;28;20065;-44
2024/01/27 05:02:28;;;;;;;11.23;5.90;;;;;;;16.26;48.16;103598.13;5005464;28;20089;-44
2024/01/27 05:04:55;;;;;;;9.85;5.82;;;;;;;16.25;48.80;103604.44;5009429;28;20434;-44
2024/01/27 05:07:21;;;;;;;8.82;4.80;;;;;;;16.19;48.18;103600.25;5006385;28;20054;-43
2024/01/27 05:09:48;;;;;;;10.52;5.45;;;;;;;16.12;48.12;103588.13;5007984;28;20045;-43
2024/01/27 05:12:15;;;;;;;10.05;4.93;;;;;;;16.02;48.46;103587.69;5009165;28;20057;-43
2024/01/27 05:14:45;;;;;;;10.13;4.75;;;;;;;15.90;48.51;103587.41;5001478;28;20050;-43
2024/01/27 05:17:12;;;;;;;10.80;5.30;;;;;;;15.79;48.52;103588.75;5009364;28;20432;-44
2024/01/27 05:19:39;;;;;;;9.90;5.15;;;;;;;15.70;48.97;103589.19;5007902;28;20046;-43
2024/01/27 05:22:05;;;;;;;9.85;5.47;;;;;;;15.60;48.84;103600.34;5007698;28;20045;-44
2024/01/27 05:24:33;;;;;;;8.02;4.65;;;;;;;15.50;49.42;103591.88;5007705;28;20049;-44
2024/01/27 05:27:00;;;;;;;8.43;4.55;;;;;;;15.39;50.29;103596.84;5004160;28;20161;-44
2024/01/27 05:29:28;;;;;;;7.32;4.60;;;;;;;15.31;49.62;103591.84;5008288;28;20073;-44
2024/01/27 05:31:54;;;;;;;9.20;5.30;;;;;;;15.23;49.88;103581.50;5004718;28;20045;-44
2024/01/27 05:34:21;;;;;;;8.30;4.65;;;;;;;15.17;50.72;103592.47;5008716;28;20058;-44
2024/01/27 05:36:47;;;;;;;7.28;4.45;;;;;;;15.11;50.28;103587.38;5008433;28;20050;-43
2024/01/27 05:39:14;;;;;;;8.73;4.68;;;;;;;15.06;51.14;103584.91;5007005;28;20060;-44
2024/01/27 05:41:41;;;;;;;8.93;4.55;;;;;;;15.03;50.53;103582.41;5005776;28;20042;-44
2024/01/27 05:44:07;;;;;;;11.48;4.82;;;;;;;14.98;51.07;103588.84;5007922;28;20049;-43
2024/01/27 05:46:34;;;;;;;9.65;5.10;;;;;;;14.95;51.15;103578.28;5006178;28;20159;-44
2024/01/27 05:49:02;;;;;;;10.73;4.75;;;;;;;14.94;51.04;103579.25;5001768;28;20050;-43
2024/01/27 05:51:33;;;;;;;7.65;4.50;;;;;;;14.92;51.07;103586.47;5005327;28;20472;-43
2024/01/27 05:54:00;;;;;;;9.63;4.43;;;;;;;14.91;51.26;103572.22;5005514;28;20558;-43
2024/01/27 05:56:26;;;;;;;7.63;4.68;;;;;;;14.92;50.57;103570.44;5004002;28;20050;-44
2024/01/27 05:58:53;;;;;;;8.55;4.43;;;;;;;14.94;50.70;103571.22;5007811;28;20092;-43
2024/01/27 06:01:20;;;;;;;10.77;4.65;;;;;;;15.02;50.93;103577.97;5003545;28;20473;-44
2024/01/27 06:03:47;;;;;;;8.88;4.28;;;;;;;15.13;50.90;103590.84;5007054;28;20049;-44
2024/01/27 06:06:14;;;;;;;6.90;3.83;;;;;;;15.24;51.04;103593.94;5006745;28;20050;-44
2024/01/27 06:08:41;;;;;;;6.63;4.00;;;;;;;15.37;50.85;103596.91;5005800;28;20057;-44
2024/01/27 06:11:08;;;;;;;7.32;4.15;;;;;;;15.48;49.62;103585.75;5005566;28;20092;-43
2024/01/27 06:13:37;;;;;;;9.15;4.13;;;;;;;15.59;49.46;103587.91;5006523;28;20073;-44
2024/01/27 06:16:11;;;;;;;7.80;4.05;;;;;;;15.68;49.40;103583.06;5005814;28;20091;-44
2024/01/27 06:18:38;;;;;;;7.55;3.88;;;;;;;15.74;49.92;103580.09;5004199;28;20444;-44
2024/01/27 06:21:05;;;;;;;6.50;4.07;;;;;;;15.79;49.27;103579.88;5004604;28;20125;-44
2024/01/27 06:23:32;;;;;;;7.13;3.70;;;;;;;15.83;48.97;103580.59;5005116;28;20053;-44
2024/01/27 06:25:59;;;;;;;9.13;4.15;;;;;;;15.85;49.74;103571.56;5005577;28;20057;-44
2024/01/27 06:28:26;;;;;;;9.50;4.15;;;;;;;15.88;49.33;103576.78;5000555;28;20394;-44
2024/01/27 06:30:52;;;;;;;8.95;3.88;;;;;;;15.89;49.25;103574.97;5003980;28;20042;-44
2024/01/27 06:33:19;;;;;;;5.50;3.45;;;;;;;15.92;49.77;103574.81;5002434;28;20049;-44
2024/01/27 06:35:45;;;;;;;7.85;3.97;;;;;;;15.94;48.79;103578.28;4993294;28;20326;-44
2024/01/27 06:38:12;;;;;;;7.75;4.22;;;;;;;15.93;49.43;103572.06;5007664;28;20054;-45
2024/01/27 06:40:39;;;;;;;6.22;3.55;;;;;;;15.96;48.67;103571.94;5004450;28;20046;-44
2024/01/27 06:43:05;;;;;;;7.10;4.15;;;;;;;15.97;49.25;103576.34;5003432;28;20529;-44
2024/01/27 06:45:32;;;;;;;6.28;3.75;;;;;;;15.97;48.49;103572.81;5002181;28;20388;-44
2024/01/27 06:47:58;;;;;;;6.65;3.97;;;;;;;15.98;48.85;103572.72;5009008;28;20042;-44
2024/01/27 06:50:25;;;;;;;7.35;3.65;;;;;;;16.00;49.37;103570.84;4996800;28;20054;-44
2024/01/27 06:52:52;;;;;;;6.82;3.63;;;;;;;16.03;48.90;103577.84;5003400;28;20157;-44
2024/01/27 06:55:19;;;;;;;9.20;3.92;;;;;;;16.04;49.03;103580.47;5007617;28;20111;-44
2024/01/27 06:57:45;;;;;;;6.97;3.60;;;;;;;16.06;49.18;103580.38;5002529;28;20061;-44
2024/01/27 07:00:16;;;;;;;6.80;3.53;;;;;;;16.07;48.85;103578.56;5001576;28;20464;-44
2024/01/27 07:02:43;;;;;;;7.45;3.95;;;;;;;16.06;48.28;103591.06;5002788;28;20149;-44
2024/01/27 07:05:10;;;;;;;4.40;3.10;;;;;;;16.07;48.63;103590.13;5004007;28;20078;-44
2024/01/27 07:07:36;;;;;;;8.38;3.80;;;;;;;16.07;48.33;103586.59;5008315;28;20124;-44
2024/01/27 07:10:03;;;;;;;5.78;3.40;;;;;;;16.06;47.87;103584.88;5005939;28;20135;-44
2024/01/27 07:12:30;;;;;;;6.13;3.53;;;;;;;16.06;48.23;103582.19;5008816;28;20099;-44
2024/01/27 07:14:58;;;;;;;6.53;3.75;;;;;;;16.03;48.02;103585.88;5001793;28;20471;-44
2024/01/27 07:17:28;;;;;;;6.10;3.60;;;;;;;16.00;48.89;103586.91;5010404;28;20140;-44
2024/01/27 07:19:55;;;;;;;7.05;3.45;;;;;;;15.97;47.86;103597.75;5005082;28;20053;-44
2024/01/27 07:22:23;;;;;;;8.70;3.88;;;;;;;15.91;48.49;103599.81;5002140;28;20042;-44
2024/01/27 07:24:51;;;;;;;6.88;3.53;;;;;;;15.83;48.95;103608.19;5001869;28;20082;-44
2024/01/27 07:27:18;;;;;;;6.18;3.35;;;;;;;15.74;49.21;103617.53;5007081;28;20058;-45
2024/01/27 07:29:45;;;;;;;7.72;3.72;;;;;;;15.69;48.94;103624.03;5005779;28;20472;-44
2024/01/27 07:32:13;;;;;;;6.38;3.53;;;;;;;15.62;48.37;103617.19;5005122;28;20052;-43
2024/01/27 07:34:41;;;;;;;6.18;3.17;;;;;;;15.56;48.38;103615.69;5003425;28;20112;-44
2024/01/27 07:37:08;;;;;;;6.28;3.47;;;;;;;15.49;48.82;103616.88;5007744;28;20050;-45
2024/01/27 07:39:35;;;;;;;7.07;3.65;;;;;;;15.42;48.65;103618.09;5004641;28;20076;-44
2024/01/27 07:42:02;;;;;;;8.35;4.13;;;;;;;15.35;49.84;103612.13;5013024;28;20053;-44
2024/01/27 07:44:29;;;;;;;8.15;3.83;;;;;;;15.25;49.72;103619.72;5009971;28;20369;-44
2024/01/27 07:46:56;;;;;;;9.38;3.80;;;;;;;15.21;48.90;103619.91;5001937;28;20057;-44
2024/01/27 07:49:23;;;;;;;8.35;3.95;;;;;;;15.13;49.91;103625.59;5006186;28;20086;-44
2024/01/27 07:51:50;;;;;;;6.50;3.45;;;;;;;15.08;50.33;103629.41;5005389;28;20082;-44
2024/01/27 07:54:16;;;;;;;9.10;3.78;;;;;;;15.02;49.72;103630.53;5010010;28;20330;-44
2024/01/27 07:56:43;;;;;;;7.80;3.80;;;;;;;14.97;49.85;103640.53;5008829;28;20056;-44
2024/01/27 07:59:13;;;;;;;8.80;3.58;;;;;;;14.94;50.39;103638.00;5005858;28;20054;-44
2024/01/27 08:01:41;;;;;;;10.02;3.80;;;;;;;14.91;50.31;103638.13;5008446;28;20488;-44
2024/01/27 08:04:08;;;;;;;7.85;4.10;;;;;;;14.87;50.63;103636.50;5002473;28;20046;-44
2024/01/27 08:06:46;;;;;;;8.52;4.18;;;;;;;14.82;50.76;103621.53;5000855;28;20076;-44
2024/01/27 08:09:13;;;;;;;6.78;3.80;;;;;;;14.84;50.37;103620.63;5004474;28;20054;-44
2024/01/27 08:11:40;;;;;;;6.55;3.85;;;;;;;14.81;50.55;103632.31;5003735;28;20068;-44
2024/01/27 08:14:06;;;;;;;6.63;4.30;;;;;;;14.80;50.38;103628.78;5009611;28;20060;-44
2024/01/27 08:16:33;;;;;;;6.55;3.85;;;;;;;14.82;50.81;103626.88;5011212;28;20149;-44
2024/01/27 08:19:00;;;;;;;6.15;4.03;;;;;;;14.82;49.93;103631.34;5007497;28;20057;-43
2024/01/27 08:21:27;;;;;;;9.40;4.53;;;;;;;14.83;50.71;103625.06;5010663;28;20046;-44
2024/01/27 08:23:54;;;;;;;7.43;3.72;;;;;;;14.87;49.83;103625.81;5008998;28;20057;-44
2024/01/27 08:26:22;;;;;;;6.97;3.78;;;;;;;14.91;49.98;103630.09;5002597;28;20430;-44
2024/01/27 08:28:49;;;;;;;9.40;4.05;;;;;;;14.96;50.96;103631.66;5007136;28;20050;-44
2024/01/27 08:31:15;;;;;;;8.15;4.07;;;;;;;15.02;51.07;103618.03;5007835;28;20054;-44
2024/01/27 08:33:42;;;;;;;7.57;4.80;;;;;;;15.08;51.23;103619.59;5013868;28;20077;-44
2024/01/27 08:36:14;;;;;;;8.77;4.97;;;;;;;15.13;50.65;103614.91;5004857;28;20057;-44
2024/01/27 08:38:41;;;;;;;12.00;4.50;;;;;;;15.16;50.67;103622.78;5006406;28;20050;-44
2024/01/27 08:41:07;;;;;;;10.50;4.80;;;;;;;15.19;50.89;103617.28;5009377;28;20500;-44
2024/01/27 08:43:34;;;;;;;9.02;4.50;;;;;;;15.23;51.29;103621.56;5007240;28;20049;-44
2024/01/27 08:46:01;;;;;;;9.32;4.47;;;;;;;15.26;50.33;103624.09;5005969;28;20438;-44
2024/01/27 08:48:27;;;;;;;8.73;4.75;;;;;;;15.28;49.87;103637.41;4999225;28;20058;-45
2024/01/27 08:50:54;;;;;;;7.93;4.65;;;;;;;15.33;49.90;103645.22;5000720;28;20362;-44
2024/01/27 08:53:21;;;;;;;9.50;4.78;;;;;;;15.38;50.22;103637.88;4997898;28;20058;-43
2024/01/27 08:55:47;;;;;;;10.05;4.70;;;;;;;15.41;51.05;103635.94;4999660;28;20058;-44
2024/01/27 08:58:14;;;;;;;11.52;5.55;;;;;;;15.46;51.08;103636.59;5002563;28;20100;-44
2024/01/27 09:00:41;;;;;;;8.50;5.50;;;;;;;15.51;50.25;103644.41;5008989;28;20322;-44
2024/01/27 09:03:07;;;;;;;11.30;6.47;;;;;;;15.56;51.08;103645.09;5008650;28;20061;-44
2024/01/27 09:05:34;;;;;;;13.00;6.95;;;;;;;15.60;50.18;103649.34;5010552;28;20069;-44
2024/01/27 09:08:01;;;;;;;15.57;8.18;;;;;;;15.64;50.38;103640.25;5001977;28;20429;-44
2024/01/27 09:10:28;;;;;;;14.50;7.38;;;;;;;15.67;51.05;103645.47;4997780;28;20050;-44
2024/01/27 09:12:55;;;;;;;10.95;6.60;;;;;;;15.69;50.66;103648.97;5008573;28;20037;-44
2024/01/27 09:15:22;;;;;;;10.25;6.15;;;;;;;15.72;49.50;103656.00;5002250;28;20804;-44
2024/01/27 09:17:48;;;;;;;10.45;6.57;;;;;;;15.72;50.22;103653.31;5008550;28;20050;-44
2024/01/27 09:20:15;;;;;;;14.25;7.55;;;;;;;15.74;49.77;103649.63;5000322;28;20089;-44
2024/01/27 09:22:42;;;;;;;10.88;6.63;;;;;;;15.76;49.34;103649.56;5001744;28;20168;-44
2024/01/27 09:25:09;;;;;;;14.57;7.20;;;;;;;15.78;49.95;103664.56;5006570;28;20473;-44
2024/01/27 09:27:35;;;;;;;13.50;7.22;;;;;;;15.81;50.15;103668.94;5002197;28;20078;-44
2024/01/27 09:30:03;;;;;;;11.82;6.78;;;;;;;15.85;50.21;103670.53;5001022;28;20050;-44
2024/01/27 09:32:29;;;;;;;11.98;6.82;;;;;;;15.87;49.52;103675.78;5006920;28;20072;-44
2024/01/27 09:34:56;;;;;;;14.25;7.28;;;;;;;15.90;49.49;103678.34;5007782;28;20053;-44
2024/01/27 09:37:23;;;;;;;13.40;6.82;;;;;;;15.93;49.20;103678.19;5002574;28;20078;-44
2024/01/27 09:39:54;;;;;;;13.10;7.68;;;;;;;15.96;49.81;103667.34;5005130;28;20205;-44
2024/01/27 09:42:21;;;;;;;11.80;6.53;;;;;;;16.00;49.12;103671.59;4997211;28;20082;-44
2024/01/27 09:44:49;;;;;;;14.57;7.32;;;;;;;16.04;49.72;103678.59;5003278;28;20741;-44
2024/01/27 09:47:16;;;;;;;13.07;7.43;;;;;;;16.09;49.22;103678.38;5006845;28;20054;-44
2024/01/27 09:49:42;;;;;;;11.95;6.85;;;;;;;16.13;49.85;103685.31;5004159;28;20050;-44
2024/01/27 09:52:09;;;;;;;23.48;13.45;;;;;;;16.17;50.14;103693.13;5008728;28;20054;-44
2024/01/27 09:54:37;;;;;;;36.38;19.73;;;;;;;16.22;49.18;103695.56;5003894;28;20128;-44
2024/01/27 09:57:04;;;;;;;35.17;19.23;;;;;;;16.25;49.49;103685.59;4999303;28;20053;-44
2024/01/27 09:59:33;;;;;;;31.50;18.00;;;;;;;16.31;49.69;103692.44;5008727;28;20104;-44
2024/01/27 10:02:01;;;;;;;28.75;17.27;;;;;;;16.36;49.18;103693.13;5009877;28;20051;-43
2024/01/27 10:04:29;;;;;;;29.05;15.15;;;;;;;16.42;49.75;103697.31;5004758;28;20124;-44
2024/01/27 10:06:57;;;;;;;30.55;16.25;;;;;;;16.46;48.74;103701.56;5007948;28;20081;-43
2024/01/27 10:09:24;;;;;;;28.50;15.68;;;;;;;16.53;49.11;103703.03;5009994;28;20050;-44
2024/01/27 10:11:53;;;;;;;26.33;15.13;;;;;;;16.57;49.33;103699.25;5006283;28;20083;-43
2024/01/27 10:14:20;;;;;;;29.17;16.73;;;;;;;16.63;48.91;103709.66;5007331;28;20128;-44
2024/01/27 10:16:47;;;;;;;27.40;16.27;;;;;;;16.69;48.96;103711.19;5010003;28;20054;-44
2024/01/27 10:19:18;;;;;;;32.60;17.48;;;;;;;16.74;48.57;103720.75;5006115;28;20421;-44
2024/01/27 10:21:46;;;;;;;27.45;16.38;;;;;;;16.78;48.98;103718.78;5004977;28;20049;-43
2024/01/27 10:24:14;;;;;;;27.77;16.00;;;;;;;16.84;48.49;103725.66;5006130;28;20050;-43
2024/01/27 10:26:41;;;;;;;27.77;15.73;;;;;;;16.87;48.83;103720.16;5008033;28;20041;-43
2024/01/27 10:29:09;;;;;;;29.02;16.50;;;;;;;16.91;48.71;103724.41;5003951;28;20049;-43
2024/01/27 10:31:36;;;;;;;27.45;16.65;;;;;;;16.95;49.23;103726.00;5009264;28;20465;-44
2024/01/27 10:34:09;;;;;;;27.65;16.33;;;;;;;17.00;49.20;103714.13;5005541;28;20686;-44
2024/01/27 10:36:44;;;;;;;27.88;15.63;;;;;;;17.03;48.66;103719.28;5006054;28;20132;-43
2024/01/27 10:39:22;;;;;;;27.98;16.80;;;;;;;17.07;48.94;103703.94;5008349;28;20060;-44
2024/01/27 10:41:50;;;;;;;32.22;18.45;;;;;;;17.12;48.55;103704.56;5005537;28;20192;-44
2024/01/27 10:44:19;;;;;;;27.95;16.92;;;;;;;17.16;48.31;103705.28;5008791;28;20049;-43
2024/01/27 10:46:49;;;;;;;26.60;16.75;;;;;;;17.18;48.85;103698.91;5009397;28;20127;-43
2024/01/27 10:49:17;;;;;;;28.00;16.70;;;;;;;17.21;48.29;103696.06;5005913;28;20064;-44
2024/01/27 10:52:10;;;;;;;31.25;17.65;;;;;;;17.22;48.07;103697.81;5004116;28;20045;-44
2024/01/27 10:54:39;;;;;;;29.95;17.08;;;;;;;17.28;48.38;103694.78;5004987;28;20493;-44
2024/01/27 10:57:08;;;;;;;33.00;16.48;;;;;;;17.31;47.83;103693.78;5006028;28;20045;-44
2024/01/27 10:59:35;;;;;;;34.08;18.38;;;;;;;17.34;48.13;103693.63;5002141;28;20056;-44
2024/01/27 11:02:04;;;;;;;28.92;17.20;;;;;;;17.36;47.64;103698.91;5006246;28;20133;-44
2024/01/27 11:04:35;;;;;;;34.90;19.13;;;;;;;17.38;48.13;103697.03;5005313;28;20093;-43
2024/01/27 11:07:02;;;;;;;25.70;16.38;;;;;;;17.41;48.04;103700.41;5003044;28;20046;-44
2024/01/27 11:09:30;;;;;;;30.15;18.30;;;;;;;17.42;48.06;103694.09;5007960;28;20058;-44
2024/01/27 11:11:57;;;;;;;28.55;16.92;;;;;;;17.44;47.84;103699.38;5009058;28;20042;-43
2024/01/27 11:14:24;;;;;;;35.97;20.38;;;;;;;17.46;47.90;103702.84;4998657;28;20327;-43
2024/01/27 11:16:56;;;;;;;39.65;23.55;;;;;;;17.47;47.77;103699.22;4964166;28;20509;-44